createdAt,value
2023-03-02T00:00:02.608Z,100150.34
2023-03-02T00:03:09.308Z,100158.94
2023-03-02T00:06:14.736Z,100162.84
2023-03-02T00:09:19.208Z,100166.22
2023-03-02T00:12:23.048Z,100165.69
2023-03-02T00:15:26.906Z,100161.16
2023-03-02T00:18:30.481Z,100156.06
2023-03-02T00:21:35.715Z,100161.66
2023-03-02T00:24:39.475Z,100157.53
2023-03-02T00:27:43.185Z,100157.16
2023-03-02T00:30:46.965Z,100155.69
2023-03-02T00:33:54.595Z,100146.50
2023-03-02T00:36:59.664Z,100154.13
2023-03-02T00:40:05.031Z,100156.31
2023-03-02T00:43:08.729Z,100156.72
2023-03-02T00:46:13.534Z,100147.91
2023-03-02T00:49:17.373Z,100151.81
2023-03-02T00:52:22.525Z,100145.81
2023-03-02T00:55:26.325Z,100135.56
2023-03-02T00:58:30.282Z,100140.41
2023-03-02T01:01:34.974Z,100136.78
2023-03-02T01:04:40.534Z,100143.38
2023-03-02T01:07:45.987Z,100141.22
2023-03-02T01:10:49.533Z,100140.38
2023-03-02T01:13:53.178Z,100140.53
2023-03-02T01:16:57.028Z,100140.97
2023-03-02T01:20:00.717Z,100139.47
2023-03-02T01:23:06.421Z,100134.69
2023-03-02T01:26:10.453Z,100132.38
2023-03-02T01:29:14.120Z,100129.56
2023-03-02T01:32:17.950Z,100122.50
2023-03-02T01:35:21.793Z,100123.25
2023-03-02T01:38:27.906Z,100122.28
2023-03-02T01:41:32.026Z,100124.53
2023-03-02T01:44:42.599Z,100123.47
2023-03-02T01:47:46.261Z,100113.97
2023-03-02T01:50:54.792Z,100113.34
2023-03-02T01:54:05.392Z,100108.25
2023-03-02T01:57:10.018Z,100108.09
2023-03-02T02:00:17.668Z,100105.13
2023-03-02T02:03:24.501Z,100104.84
2023-03-02T02:06:34.560Z,100098.97
2023-03-02T02:09:42.552Z,100097.56
2023-03-02T02:12:46.843Z,100103.97
2023-03-02T02:15:50.385Z,100103.53
2023-03-02T02:18:54.569Z,100105.41
2023-03-02T02:21:58.545Z,100102.66
2023-03-02T02:25:11.494Z,100110.34
2023-03-02T02:28:21.250Z,100095.34
2023-03-02T02:31:30.512Z,100091.28
2023-03-02T02:34:40.710Z,100086.66
2023-03-02T02:37:48.767Z,100086.16
2023-03-02T02:40:57.058Z,100093.16
2023-03-02T02:44:07.921Z,100092.41
2023-03-02T02:47:18.714Z,100090.41
2023-03-02T02:50:24.719Z,100079.47
2023-03-02T02:53:32.026Z,100075.59
2023-03-02T02:56:39.984Z,100074.56
2023-03-02T02:59:50.800Z,100079.19
2023-03-02T03:03:00.388Z,100067.19
2023-03-02T03:06:06.896Z,100073.53
2023-03-02T03:09:11.962Z,100080.31
2023-03-02T03:12:24.920Z,100074.72
2023-03-02T03:15:31.228Z,100079.44
2023-03-02T03:18:34.974Z,100079.44
2023-03-02T03:21:38.801Z,100074.59
2023-03-02T03:24:44.732Z,100083.88
2023-03-02T03:27:48.528Z,100073.53
2023-03-02T03:30:54.320Z,100066.25
2023-03-02T03:34:00.932Z,100064.91
2023-03-02T03:37:09.518Z,100062.31
2023-03-02T03:40:13.664Z,100069.72
2023-03-02T03:43:20.062Z,100070.53
2023-03-02T03:46:30.453Z,100069.41
2023-03-02T03:49:34.456Z,100079.53
2023-03-02T03:52:39.211Z,100085.63
2023-03-02T03:55:51.240Z,100076.97
2023-03-02T03:59:06.422Z,100083.00
2023-03-02T04:02:15.773Z,100090.69
2023-03-02T04:05:20.348Z,100085.16
2023-03-02T04:08:27.677Z,100085.88
2023-03-02T04:11:31.331Z,100081.06
2023-03-02T04:14:34.976Z,100091.06
2023-03-02T04:17:40.205Z,100078.09
2023-03-02T04:20:44.119Z,100072.63
2023-03-02T04:23:49.366Z,100064.13
2023-03-02T04:26:53.775Z,100064.19
2023-03-02T04:29:58.511Z,100062.31
2023-03-02T04:33:03.617Z,100074.34
2023-03-02T04:36:09.125Z,100079.97
2023-03-02T04:39:15.088Z,100076.75
2023-03-02T04:42:21.313Z,100080.31
2023-03-02T04:45:24.905Z,100097.91
2023-03-02T04:48:30.336Z,100103.19
2023-03-02T04:51:37.576Z,100101.56
2023-03-02T04:54:44.409Z,100085.09
2023-03-02T04:57:48.100Z,100098.56
2023-03-02T05:00:51.705Z,100097.66
2023-03-02T05:03:56.998Z,100104.44
2023-03-02T05:07:00.944Z,100103.34
2023-03-02T05:10:05.091Z,100107.63
2023-03-02T05:13:08.740Z,100110.31
2023-03-02T05:16:12.554Z,100109.81
2023-03-02T05:19:17.866Z,100111.31
2023-03-02T05:22:21.605Z,100109.34
2023-03-02T05:25:26.597Z,100113.22
2023-03-02T05:28:30.243Z,100115.13
2023-03-02T05:31:37.242Z,100113.06
2023-03-02T05:34:42.260Z,100116.94
2023-03-02T05:37:46.271Z,100119.16
2023-03-02T05:40:50.067Z,100119.19
2023-03-02T05:43:53.834Z,100122.28
2023-03-02T05:46:58.286Z,100129.13
2023-03-02T05:50:03.454Z,100123.00
2023-03-02T05:53:07.017Z,100121.44
2023-03-02T05:56:10.706Z,100128.69
2023-03-02T05:59:14.378Z,100126.66
2023-03-02T06:02:18.362Z,100134.66
2023-03-02T06:05:24.875Z,100125.72
2023-03-02T06:08:28.636Z,100132.03
2023-03-02T06:11:32.426Z,100131.72
2023-03-02T06:14:36.666Z,100136.38
2023-03-02T06:17:40.423Z,100139.50
2023-03-02T06:20:45.697Z,100149.22
2023-03-02T06:23:49.426Z,100142.44
2023-03-02T06:26:54.721Z,100149.47
2023-03-02T06:29:58.505Z,100156.59
2023-03-02T06:33:02.230Z,100159.53
2023-03-02T06:36:08.094Z,100154.94
2023-03-02T06:39:16.120Z,100155.59
2023-03-02T06:42:19.837Z,100156.22
2023-03-02T06:45:23.636Z,100160.66
2023-03-02T06:48:27.479Z,100157.28
2023-03-02T06:51:33.031Z,100168.91
2023-03-02T06:54:36.718Z,100165.59
2023-03-02T06:57:41.088Z,100165.19
2023-03-02T07:00:44.999Z,100152.75
2023-03-02T07:03:49.067Z,100166.75
2023-03-02T07:06:54.326Z,100162.94
2023-03-02T07:09:57.979Z,100162.72
2023-03-02T07:13:01.817Z,100169.94
2023-03-02T07:16:09.108Z,100163.09
2023-03-02T07:19:14.140Z,100164.00
2023-03-02T07:22:19.406Z,100172.47
2023-03-02T07:25:23.064Z,100173.19
2023-03-02T07:28:27.553Z,100175.28
2023-03-02T07:31:31.653Z,100170.25
2023-03-02T07:34:35.763Z,100166.00
2023-03-02T07:37:41.156Z,100172.28
2023-03-02T07:40:45.620Z,100175.78
2023-03-02T07:43:49.444Z,100177.91
2023-03-02T07:46:53.439Z,100176.72
2023-03-02T07:49:57.353Z,100177.88
2023-03-02T07:53:02.621Z,100179.22
2023-03-02T07:56:10.941Z,100184.78
2023-03-02T07:59:15.224Z,100184.66
2023-03-02T08:02:20.866Z,100182.00
2023-03-02T08:05:24.718Z,100175.72
2023-03-02T08:08:30.033Z,100177.47
2023-03-02T08:11:34.433Z,100172.88
2023-03-02T08:14:39.425Z,100179.03
2023-03-02T08:17:43.537Z,100185.25
2023-03-02T08:20:47.367Z,100179.75
2023-03-02T08:23:53.395Z,100178.44
2023-03-02T08:26:57.487Z,100174.34
2023-03-02T08:30:01.264Z,100174.47
2023-03-02T08:33:07.145Z,100168.16
2023-03-02T08:36:15.968Z,100172.13
2023-03-02T08:39:22.590Z,100166.38
2023-03-02T08:42:26.368Z,100164.13
2023-03-02T08:45:30.094Z,100163.78
2023-03-02T08:48:34.004Z,100168.50
2023-03-02T08:51:37.837Z,100168.06
2023-03-02T08:54:43.049Z,100168.28
2023-03-02T08:57:46.972Z,100173.69
2023-03-02T09:00:50.835Z,100164.81
2023-03-02T09:03:54.639Z,100166.28
2023-03-02T09:06:58.500Z,100165.31
2023-03-02T09:10:03.753Z,100168.88
2023-03-02T09:13:08.687Z,100161.81
2023-03-02T09:16:14.520Z,100163.00
2023-03-02T09:19:18.346Z,100164.94
2023-03-02T09:22:22.064Z,100157.66
2023-03-02T09:25:27.664Z,100162.44
2023-03-02T09:28:31.583Z,100148.72
2023-03-02T09:31:36.493Z,100153.00
2023-03-02T09:34:40.438Z,100158.91
2023-03-02T09:37:44.703Z,100152.41
2023-03-02T09:41:23.904Z,100152.97
2023-03-02T09:44:55.008Z,100148.56
2023-03-02T09:48:11.810Z,100139.41
2023-03-02T09:51:33.155Z,100145.13
2023-03-02T09:54:38.138Z,100141.41
2023-03-02T09:57:44.413Z,100129.19
2023-03-02T10:00:48.675Z,100137.66
2023-03-02T10:03:59.430Z,100134.19
2023-03-02T10:07:13.119Z,100128.53
2023-03-02T10:10:29.563Z,100125.34
2023-03-02T10:13:45.031Z,100124.06
2023-03-02T10:16:53.329Z,100124.31
2023-03-02T10:20:02.421Z,100128.13
2023-03-02T10:23:20.626Z,100124.50
2023-03-02T10:26:31.906Z,100129.59
2023-03-02T10:29:47.346Z,100133.25
2023-03-02T10:32:53.136Z,100126.00
2023-03-02T10:35:56.867Z,100110.75
2023-03-02T10:39:01.735Z,100116.78
2023-03-02T10:42:08.446Z,100112.09
2023-03-02T10:45:31.101Z,100108.53
2023-03-02T10:48:40.951Z,100104.06
2023-03-02T10:51:44.900Z,100102.88
2023-03-02T10:54:48.933Z,100094.59
2023-03-02T10:58:02.802Z,100094.09
2023-03-02T11:01:18.056Z,100088.94
2023-03-02T11:04:22.159Z,100093.75
2023-03-02T11:07:27.865Z,100083.09
2023-03-02T11:10:34.572Z,100093.34
2023-03-02T11:13:40.106Z,100092.56
2023-03-02T11:16:45.653Z,100090.38
2023-03-02T11:19:49.793Z,100093.16
2023-03-02T11:23:02.172Z,100091.16
2023-03-02T11:26:14.085Z,100084.44
2023-03-02T11:29:35.161Z,100086.53
2023-03-02T11:32:47.487Z,100082.91
2023-03-02T11:35:56.726Z,100084.78
2023-03-02T11:39:00.982Z,100079.94
2023-03-02T11:42:04.821Z,100072.25
2023-03-02T11:45:19.382Z,100071.75
2023-03-02T11:48:29.280Z,100066.09
2023-03-02T11:51:37.937Z,100076.84
2023-03-02T11:54:46.298Z,100075.03
2023-03-02T11:57:53.877Z,100071.88
2023-03-02T12:00:58.706Z,100074.09
2023-03-02T12:04:11.209Z,100069.88
2023-03-02T12:07:22.957Z,100071.28
2023-03-02T12:10:32.043Z,100075.66
2023-03-02T12:13:37.535Z,100069.28
2023-03-02T12:16:43.497Z,100065.88
2023-03-02T12:19:50.530Z,100066.88
2023-03-02T12:22:54.510Z,100064.69
2023-03-02T12:26:08.380Z,100061.97
2023-03-02T12:29:25.782Z,100068.81
2023-03-02T12:32:32.216Z,100064.78
2023-03-02T12:35:37.504Z,100053.59
2023-03-02T12:38:45.711Z,100062.53
2023-03-02T12:42:10.018Z,100051.19
2023-03-02T12:45:25.953Z,100049.53
2023-03-02T12:48:34.270Z,100051.53
2023-03-02T12:51:50.225Z,100038.56
2023-03-02T12:55:08.285Z,100045.31
2023-03-02T12:58:19.142Z,100031.16
2023-03-02T13:01:25.199Z,100048.69
2023-03-02T13:04:29.289Z,100037.31
2023-03-02T13:07:41.599Z,100039.91
2023-03-02T13:10:51.144Z,100036.94
2023-03-02T13:13:55.030Z,100036.47
2023-03-02T13:17:03.078Z,100033.25
2023-03-02T13:20:07.964Z,100040.69
2023-03-02T13:23:15.444Z,100037.63
2023-03-02T13:26:27.790Z,100042.72
2023-03-02T13:29:32.227Z,100040.56
2023-03-02T13:32:40.232Z,100028.38
2023-03-02T13:35:48.516Z,100030.16
2023-03-02T13:38:56.555Z,100027.34
2023-03-02T13:42:02.942Z,100019.19
2023-03-02T13:45:25.778Z,100028.16
2023-03-02T13:48:30.978Z,100023.19
2023-03-02T13:51:37.990Z,100019.78
2023-03-02T13:54:45.857Z,100021.31
2023-03-02T13:57:51.316Z,100016.94
2023-03-02T14:00:55.842Z,100014.69
2023-03-02T14:04:01.714Z,100013.50
2023-03-02T14:07:05.352Z,100004.63
2023-03-02T14:10:12.246Z,100006.75
2023-03-02T14:13:18.487Z,100006.06
2023-03-02T14:16:24.434Z,99998.72
2023-03-02T14:19:28.176Z,100004.50
2023-03-02T14:22:32.242Z,100001.06
2023-03-02T14:25:37.458Z,100002.03
2023-03-02T14:28:41.268Z,100005.41
2023-03-02T14:31:44.979Z,100000.00
2023-03-02T14:34:48.744Z,99998.25
2023-03-02T14:37:52.652Z,99995.56
2023-03-02T14:40:58.544Z,100008.22
2023-03-02T14:44:02.274Z,99993.81
2023-03-02T14:47:06.178Z,99995.09
2023-03-02T14:50:12.112Z,99987.22
2023-03-02T14:53:20.419Z,99991.81
2023-03-02T14:56:25.903Z,99983.66
2023-03-02T14:59:29.689Z,99983.53
2023-03-02T15:02:33.720Z,99982.81
2023-03-02T15:05:37.614Z,99982.22
2023-03-02T15:08:41.581Z,99990.25
2023-03-02T15:11:47.044Z,99986.53
2023-03-02T15:14:50.958Z,99990.16
2023-03-02T15:17:54.706Z,99989.81
2023-03-02T15:20:58.457Z,99988.47
2023-03-02T15:24:02.512Z,99999.81
2023-03-02T15:27:07.869Z,99994.28
2023-03-02T15:30:13.255Z,99998.06
2023-03-02T15:33:17.163Z,99997.63
2023-03-02T15:36:21.031Z,99993.66
2023-03-02T15:39:24.902Z,100000.84
2023-03-02T15:42:30.220Z,99997.66
2023-03-02T15:45:34.050Z,99999.94
2023-03-02T15:48:38.836Z,100007.28
2023-03-02T15:51:42.720Z,100004.63
2023-03-02T15:54:46.409Z,100000.66
2023-03-02T15:57:51.572Z,99996.41
2023-03-02T16:00:57.102Z,99997.47
2023-03-02T16:04:01.364Z,100000.47
2023-03-02T16:07:05.394Z,100004.63
2023-03-02T16:10:15.355Z,100003.81
2023-03-02T16:13:20.561Z,99999.66
2023-03-02T16:16:24.390Z,100010.47
2023-03-02T16:19:28.145Z,100011.66
2023-03-02T16:22:31.924Z,100015.78
2023-03-02T16:25:36.590Z,100016.00
2023-03-02T16:28:42.142Z,100016.50
2023-03-02T16:31:47.734Z,100021.75
2023-03-02T16:34:51.472Z,100025.91
2023-03-02T16:37:55.441Z,100026.78
2023-03-02T16:40:59.266Z,100027.91
2023-03-02T16:44:04.872Z,100027.84
2023-03-02T16:47:08.616Z,100028.56
2023-03-02T16:50:13.808Z,100027.47
2023-03-02T16:53:19.605Z,100035.03
2023-03-02T16:56:23.357Z,100034.03
2023-03-02T16:59:28.571Z,100038.22
2023-03-02T17:02:32.560Z,100050.00
2023-03-02T17:05:36.334Z,100046.72
2023-03-02T17:08:40.438Z,100049.16
2023-03-02T17:11:44.247Z,100055.56
2023-03-02T17:14:49.450Z,100052.72
2023-03-02T17:17:53.145Z,100064.16
2023-03-02T17:20:58.651Z,100058.63
2023-03-02T17:24:02.447Z,100063.59
2023-03-02T17:27:13.206Z,100071.53
2023-03-02T17:30:24.523Z,100069.78
2023-03-02T17:33:29.857Z,100071.78
2023-03-02T17:36:36.512Z,100067.59
2023-03-02T17:39:40.654Z,100065.78
2023-03-02T17:42:44.608Z,100071.00
2023-03-02T17:45:49.843Z,100068.19
2023-03-02T17:48:55.630Z,100068.78
2023-03-02T17:51:59.398Z,100070.06
2023-03-02T17:55:03.243Z,100069.97
2023-03-02T17:58:07.030Z,100063.44
2023-03-02T18:01:12.399Z,100062.78
2023-03-02T18:04:16.197Z,100068.84
2023-03-02T18:07:20.037Z,100066.47
2023-03-02T18:10:23.761Z,100061.91
2023-03-02T18:13:27.600Z,100066.09
2023-03-02T18:16:35.702Z,100062.50
2023-03-02T18:19:39.702Z,100054.16
2023-03-02T18:22:43.533Z,100055.28
2023-03-02T18:25:47.170Z,100058.00
2023-03-02T18:28:50.893Z,100057.13
2023-03-02T18:31:56.184Z,100055.72
2023-03-02T18:35:00.098Z,100056.03
2023-03-02T18:38:04.062Z,100060.03
2023-03-02T18:41:08.989Z,100071.97
2023-03-02T18:44:12.864Z,100067.78
2023-03-02T18:47:19.566Z,100075.78
2023-03-02T18:50:23.941Z,100073.59
2023-03-02T18:53:27.959Z,100072.22
2023-03-02T18:56:31.789Z,100071.41
2023-03-02T18:59:36.089Z,100072.59
2023-03-02T19:02:41.350Z,100074.00
2023-03-02T19:05:46.077Z,100076.34
2023-03-02T19:08:49.841Z,100076.44
2023-03-02T19:11:53.633Z,100076.69
2023-03-02T19:14:57.607Z,100060.19
2023-03-02T19:18:02.923Z,100065.38
2023-03-02T19:21:07.431Z,100066.44
2023-03-02T19:24:11.312Z,100065.59
2023-03-02T19:27:15.628Z,100072.75
2023-03-02T19:30:22.951Z,100071.38
2023-03-02T19:33:29.304Z,100064.22
2023-03-02T19:36:33.177Z,100073.44
2023-03-02T19:39:36.947Z,100068.31
2023-03-02T19:42:41.011Z,100068.16
2023-03-02T19:45:44.850Z,100071.28
2023-03-02T19:48:50.070Z,100069.19
2023-03-02T19:51:53.991Z,100066.56
2023-03-02T19:54:57.724Z,100063.75
2023-03-02T19:58:02.630Z,100069.94
2023-03-02T20:01:06.941Z,100072.00
2023-03-02T20:04:12.717Z,100066.66
2023-03-02T20:07:16.755Z,100063.22
2023-03-02T20:10:30.443Z,100066.94
2023-03-02T20:13:34.291Z,100068.84
2023-03-02T20:16:39.081Z,100064.00
2023-03-02T20:19:44.806Z,100066.88
2023-03-02T20:22:49.785Z,100060.69
2023-03-02T20:25:54.036Z,100054.59
2023-03-02T20:29:00.480Z,100051.53
2023-03-02T20:32:09.177Z,100053.34
2023-03-02T20:35:15.037Z,100046.88
2023-03-02T20:38:25.901Z,100040.31
2023-03-02T20:41:31.218Z,100035.28
2023-03-02T20:44:35.255Z,100034.50
2023-03-02T20:47:39.358Z,100027.88
2023-03-02T20:50:45.969Z,100029.16
2023-03-02T20:53:49.781Z,100019.06
2023-03-02T20:56:54.197Z,100022.47
2023-03-02T20:59:57.849Z,100022.69
2023-03-02T21:03:01.576Z,100024.66
2023-03-02T21:06:08.062Z,100025.88
2023-03-02T21:09:12.358Z,100023.56
2023-03-02T21:12:16.143Z,100017.88
2023-03-02T21:15:23.025Z,100018.94
2023-03-02T21:18:27.202Z,100007.72
2023-03-02T21:21:41.460Z,100009.06
2023-03-02T21:24:45.614Z,100003.75
2023-03-02T21:27:49.966Z,99996.31
2023-03-02T21:30:53.959Z,99994.25
2023-03-02T21:33:58.560Z,99988.53
2023-03-02T21:37:04.754Z,99991.78
2023-03-02T21:40:10.179Z,99979.97
2023-03-02T21:43:16.338Z,99976.09
2023-03-02T21:46:22.528Z,99982.06
2023-03-02T21:49:26.439Z,99973.50
2023-03-02T21:52:31.677Z,99971.81
2023-03-02T21:55:35.910Z,99977.63
2023-03-02T21:58:39.880Z,99968.25
2023-03-02T22:01:44.258Z,99969.72
2023-03-02T22:04:48.031Z,99965.81
2023-03-02T22:07:53.217Z,99963.81
2023-03-02T22:10:57.029Z,99960.53
2023-03-02T22:14:03.145Z,99952.66
2023-03-02T22:17:16.874Z,99944.75
2023-03-02T22:20:21.378Z,99948.78
2023-03-02T22:23:28.000Z,99945.63
2023-03-02T22:26:35.098Z,99947.50
2023-03-02T22:29:43.150Z,99943.00
2023-03-02T22:32:46.979Z,99941.19
2023-03-02T22:35:53.156Z,99946.03
2023-03-02T22:39:02.063Z,99935.91
2023-03-02T22:42:13.953Z,99936.88
2023-03-02T22:45:22.730Z,99934.38
2023-03-02T22:48:28.869Z,99937.50
2023-03-02T22:51:35.418Z,99935.25
2023-03-02T22:54:40.571Z,99932.72
2023-03-02T22:57:44.798Z,99926.25
2023-03-02T23:00:49.773Z,99931.13
2023-03-02T23:03:56.075Z,99925.47
2023-03-02T23:07:01.505Z,99923.69
2023-03-02T23:10:07.376Z,99920.38
2023-03-02T23:13:12.259Z,99914.97
2023-03-02T23:16:21.280Z,99916.34
2023-03-02T23:19:26.354Z,99912.81
2023-03-02T23:22:30.180Z,99914.03
2023-03-02T23:25:35.405Z,99921.97
2023-03-02T23:28:39.318Z,99913.97
2023-03-02T23:31:43.948Z,99914.94
2023-03-02T23:34:47.766Z,99912.38
2023-03-02T23:37:51.490Z,99911.44
2023-03-02T23:40:56.684Z,99902.56
2023-03-02T23:44:00.432Z,99904.03
2023-03-02T23:47:03.958Z,99901.97
2023-03-02T23:50:09.049Z,99900.63
2023-03-02T23:53:12.921Z,99895.19
2023-03-02T23:56:18.138Z,99890.09
2023-03-02T23:59:22.120Z,99889.31
